Terminal Aerodrome Forecast
Issued by NWS

Home | Current Version | Previous Version | Text Only | Print | Product List | Glossary On
Versions: 1 2 3 4 5 6 7 8 9 10 11 12 13 14 15 16 17 18 19 20
000
FTUS45 KBOU 272101 AAA
TAFAPA
TAF AMD
KAPA 272101Z 2721/2818 13015G20KT P6SM SCT080 BKN200
     FM280000 17013KT P6SM VCSH BKN090
      TEMPO 2801/2805 -SHRA BKN060
     FM280500 19008KT P6SM VCSH SCT060 BKN090
     FM281100 22010KT P6SM SCT008 BKN015
     FM281700 27008KT P6SM SCT008 BKN010=

USA.gov is the U.S. government's official web portal to all federal, state and local government web resources and services.